createdAt,value
2022-09-28T00:03:13.371Z,91.20
2022-09-28T00:08:13.201Z,91.41
2022-09-28T00:13:13.127Z,90.79
2022-09-28T00:18:13.070Z,90.79
2022-09-28T00:23:12.999Z,90.99
2022-09-28T00:28:12.937Z,91.30
2022-09-28T00:33:12.863Z,91.44
2022-09-28T00:38:12.806Z,91.24
2022-09-28T00:43:12.733Z,91.44
2022-09-28T00:48:12.675Z,91.44
2022-09-28T00:53:12.602Z,91.44
2022-09-28T00:58:12.551Z,91.96
2022-09-28T01:03:12.471Z,92.11
2022-09-28T01:08:12.415Z,92.11
2022-09-28T01:13:12.339Z,92.31
2022-09-28T01:18:12.282Z,92.41
2022-09-28T01:23:12.213Z,92.11
2022-09-28T01:28:12.149Z,91.69
2022-09-28T01:33:12.078Z,91.90
2022-09-28T01:38:12.020Z,91.18
2022-09-28T01:43:11.949Z,90.97
2022-09-28T01:48:11.891Z,90.87
2022-09-28T01:53:11.814Z,91.08
2022-09-28T01:58:11.762Z,91.63
2022-09-28T02:03:11.683Z,91.33
2022-09-28T02:08:11.628Z,91.94
2022-09-28T02:13:11.550Z,92.40
2022-09-28T02:18:11.492Z,92.71
2022-09-28T02:23:11.422Z,92.81
2022-09-28T02:28:11.363Z,92.96
2022-09-28T02:33:11.290Z,92.96
2022-09-28T02:38:11.232Z,92.71
2022-09-28T02:43:11.157Z,92.40
2022-09-28T02:48:11.100Z,92.09
2022-09-28T02:53:11.024Z,91.88
2022-09-28T02:58:10.969Z,91.78
2022-09-28T03:03:10.896Z,92.09
2022-09-28T03:08:10.839Z,92.09
2022-09-28T03:13:10.755Z,92.44
2022-09-28T03:18:10.702Z,92.24
2022-09-28T03:23:24.325Z,92.81
2022-09-28T03:28:11.592Z,92.91
2022-09-28T03:33:10.497Z,92.91
2022-09-28T03:38:10.438Z,92.71
2022-09-28T03:43:10.364Z,92.29
2022-09-28T03:48:10.307Z,91.88
2022-09-28T03:53:10.238Z,91.57
2022-09-28T03:58:10.178Z,91.68
2022-09-28T04:03:10.107Z,91.88
2022-09-28T04:08:10.047Z,91.74
2022-09-28T04:13:09.975Z,92.25
2022-09-28T04:18:09.925Z,92.35
2022-09-28T04:23:09.841Z,92.56
2022-09-28T04:28:09.794Z,92.77
2022-09-28T04:33:09.710Z,93.28
2022-09-28T04:38:09.661Z,92.35
2022-09-28T04:43:09.579Z,92.01
2022-09-28T04:48:09.581Z,90.97
2022-09-28T04:53:09.449Z,91.35
2022-09-28T04:58:09.391Z,91.44
2022-09-28T05:03:09.318Z,91.86
2022-09-28T05:08:09.262Z,91.44
2022-09-28T05:13:09.187Z,91.24
2022-09-28T05:18:09.130Z,91.61
2022-09-28T05:23:09.057Z,91.71
2022-09-28T05:28:08.999Z,91.82
2022-09-28T05:33:08.928Z,91.82
2022-09-28T05:38:08.878Z,92.43
2022-09-28T05:43:08.795Z,93.15
2022-09-28T05:48:08.746Z,92.95
2022-09-28T05:53:08.666Z,93.67
2022-09-28T05:58:08.617Z,94.28
2022-09-28T06:03:09.476Z,95.20
2022-09-28T06:08:08.602Z,96.13
2022-09-28T06:13:08.404Z,96.44
2022-09-28T06:18:08.348Z,97.05
2022-09-28T06:23:08.282Z,97.52
2022-09-28T06:28:08.214Z,97.32
2022-09-28T06:33:08.151Z,97.01
2022-09-28T06:38:08.098Z,96.70
2022-09-28T06:43:08.024Z,96.80
2022-09-28T06:48:07.960Z,97.52
2022-09-28T06:53:07.889Z,97.52
2022-09-28T06:58:07.824Z,97.46
2022-09-28T07:03:07.748Z,97.46
2022-09-28T07:08:07.689Z,97.77
2022-09-28T07:13:13.099Z,98.08
2022-09-28T07:18:07.715Z,98.39
2022-09-28T07:23:17.508Z,98.33
2022-09-28T07:28:08.452Z,98.29
2022-09-28T07:33:07.355Z,98.90
2022-09-28T07:38:07.304Z,98.90
2022-09-28T07:43:07.233Z,98.39
2022-09-28T07:48:07.199Z,98.29
2022-09-28T07:53:07.101Z,97.67
2022-09-28T07:58:07.090Z,99.06
2022-09-28T08:03:06.968Z,98.44
2022-09-28T08:08:06.902Z,98.51
2022-09-28T08:13:08.694Z,98.09
2022-09-28T08:18:06.772Z,97.07
2022-09-28T08:23:06.711Z,97.38
2022-09-28T08:28:06.641Z,96.51
2022-09-28T08:33:06.569Z,95.07
2022-09-28T08:38:06.515Z,95.38
2022-09-28T08:43:06.436Z,95.38
2022-09-28T08:48:06.379Z,95.23
2022-09-28T08:53:06.311Z,95.23
2022-09-28T08:58:06.249Z,94.62
2022-09-28T09:03:06.186Z,93.90
2022-09-28T09:08:06.119Z,94.72
2022-09-28T09:13:06.097Z,93.18
2022-09-28T09:18:05.989Z,93.96
2022-09-28T09:23:05.925Z,93.55
2022-09-28T09:28:05.862Z,93.34
2022-09-28T09:33:05.795Z,93.85
2022-09-28T09:38:05.726Z,94.37
2022-09-28T09:43:05.654Z,94.32
2022-09-28T09:48:05.595Z,91.88
2022-09-28T09:53:05.525Z,90.42
2022-09-28T09:58:05.464Z,88.14
2022-09-28T10:03:05.392Z,88.10
2022-09-28T10:08:05.334Z,87.42
2022-09-28T10:13:05.260Z,88.85
2022-09-28T10:18:05.203Z,88.79
2022-09-28T10:23:05.139Z,89.61
2022-09-28T10:28:05.071Z,90.02
2022-09-28T10:33:05.008Z,89.75
2022-09-28T10:38:04.940Z,87.81
2022-09-28T10:43:04.876Z,87.53
2022-09-28T10:48:04.812Z,86.20
2022-09-28T10:53:04.746Z,84.75
2022-09-28T10:58:04.681Z,84.69
2022-09-28T11:03:04.606Z,83.37
2022-09-28T11:08:04.548Z,83.81
2022-09-28T11:13:04.475Z,84.67
2022-09-28T11:18:04.416Z,85.14
2022-09-28T11:23:04.345Z,83.95
2022-09-28T11:28:04.536Z,83.69
2022-09-28T11:33:04.224Z,85.46
2022-09-28T11:38:04.155Z,85.87
2022-09-28T11:43:07.214Z,86.22
2022-09-28T11:48:04.022Z,87.48
2022-09-28T11:53:03.948Z,88.20
2022-09-28T11:58:03.893Z,88.47
2022-09-28T12:03:03.991Z,87.71
2022-09-28T12:08:03.771Z,86.40
2022-09-28T12:13:03.688Z,83.61
2022-09-28T12:18:03.768Z,83.39
2022-09-28T12:23:03.559Z,78.64
2022-09-28T12:28:03.511Z,78.27
2022-09-28T12:33:03.427Z,78.85
2022-09-28T12:38:03.402Z,78.00
2022-09-28T12:43:03.300Z,77.93
2022-09-28T12:48:03.245Z,76.34
2022-09-28T12:53:03.394Z,75.42
2022-09-28T12:58:03.103Z,76.24
2022-09-28T13:03:03.029Z,75.42
2022-09-28T13:08:02.971Z,73.08
2022-09-28T13:13:02.897Z,71.97
2022-09-28T13:18:02.860Z,72.71
2022-09-28T13:23:02.782Z,73.84
2022-09-28T13:28:02.709Z,73.49
2022-09-28T13:33:02.639Z,72.44
2022-09-28T13:38:02.585Z,70.52
2022-09-28T13:43:02.502Z,69.83
2022-09-28T13:48:02.453Z,69.66
2022-09-28T13:53:02.369Z,73.05
2022-09-28T13:58:02.324Z,73.29
2022-09-28T14:03:02.323Z,74.71
2022-09-28T14:08:02.188Z,75.16
2022-09-28T14:13:04.181Z,75.36
2022-09-28T14:18:02.059Z,76.59
2022-09-28T14:23:01.970Z,76.38
2022-09-28T14:28:01.923Z,75.06
2022-09-28T14:33:01.836Z,74.75
2022-09-28T14:38:01.792Z,74.48
2022-09-28T14:43:01.707Z,74.79
2022-09-28T14:48:01.657Z,76.04
2022-09-28T14:53:01.572Z,76.86
2022-09-28T14:58:01.556Z,79.41
2022-09-28T15:03:01.439Z,79.31
2022-09-28T15:08:01.385Z,78.19
2022-09-28T15:13:01.344Z,78.69
2022-09-28T15:18:01.257Z,78.29
2022-09-28T15:23:01.175Z,77.58
2022-09-28T15:28:01.119Z,78.33
2022-09-28T15:33:01.046Z,78.36
2022-09-28T15:38:00.998Z,79.38
2022-09-28T15:43:00.914Z,80.13
2022-09-28T15:48:00.867Z,81.05
2022-09-28T15:53:00.787Z,80.95
2022-09-28T15:58:00.738Z,81.26
2022-09-28T16:03:00.743Z,81.87
2022-09-28T16:08:00.609Z,80.13
2022-09-28T16:13:00.522Z,79.93
2022-09-28T16:18:00.465Z,79.73
2022-09-28T16:23:00.391Z,79.21
2022-09-28T16:28:00.334Z,79.66
2022-09-28T16:33:00.267Z,80.68
2022-09-28T16:38:00.204Z,80.72
2022-09-28T16:43:00.140Z,81.27
2022-09-28T16:48:00.081Z,82.94
2022-09-28T16:53:00.211Z,84.21
2022-09-28T16:57:59.940Z,84.96
2022-09-28T17:02:59.945Z,85.68
2022-09-28T17:07:59.808Z,86.44
2022-09-28T17:12:59.740Z,87.15
2022-09-28T17:17:59.677Z,87.98
2022-09-28T17:22:59.602Z,88.53
2022-09-28T17:27:59.544Z,88.33
2022-09-28T17:32:59.470Z,87.92
2022-09-28T17:37:59.416Z,88.01
2022-09-28T17:42:59.348Z,88.67
2022-09-28T17:47:59.280Z,88.67
2022-09-28T17:52:59.222Z,89.02
2022-09-28T17:57:59.149Z,88.92
2022-09-28T18:02:59.165Z,89.12
2022-09-28T18:07:59.021Z,89.27
2022-09-28T18:12:58.961Z,90.71
2022-09-28T18:17:59.141Z,90.91
2022-09-28T18:22:58.818Z,90.85
2022-09-28T18:27:58.760Z,91.26
2022-09-28T18:32:58.689Z,91.82
2022-09-28T18:37:58.633Z,92.43
2022-09-28T18:42:58.557Z,92.78
2022-09-28T18:47:58.505Z,92.58
2022-09-28T18:52:58.426Z,92.37
2022-09-28T18:57:58.372Z,92.16
2022-09-28T19:02:58.449Z,92.16
2022-09-28T19:07:58.240Z,92.68
2022-09-28T19:12:58.176Z,92.68
2022-09-28T19:17:58.109Z,92.16
2022-09-28T19:22:58.047Z,92.07
2022-09-28T19:27:57.980Z,91.76
2022-09-28T19:32:57.918Z,91.76
2022-09-28T19:37:57.843Z,91.76
2022-09-28T19:42:57.795Z,91.90
2022-09-28T19:47:59.475Z,91.90
2022-09-28T19:52:57.661Z,92.11
2022-09-28T19:57:57.591Z,92.31
2022-09-28T20:02:57.577Z,92.62
2022-09-28T20:07:57.526Z,92.77
2022-09-28T20:12:57.399Z,92.97
2022-09-28T20:17:57.316Z,92.97
2022-09-28T20:22:57.256Z,92.66
2022-09-28T20:27:57.184Z,92.56
2022-09-28T20:32:57.126Z,93.12
2022-09-28T20:37:57.053Z,93.53
2022-09-28T20:42:56.996Z,93.53
2022-09-28T20:47:56.922Z,93.73
2022-09-28T20:52:56.864Z,93.98
2022-09-28T20:57:56.799Z,94.50
2022-09-28T21:02:56.820Z,94.81
2022-09-28T21:07:56.660Z,95.33
2022-09-28T21:12:56.610Z,95.42
2022-09-28T21:17:56.529Z,95.63
2022-09-28T21:22:56.490Z,95.63
2022-09-28T21:27:56.399Z,95.84
2022-09-28T21:32:56.349Z,95.94
2022-09-28T21:37:56.269Z,95.94
2022-09-28T21:42:56.210Z,95.53
2022-09-28T21:47:56.138Z,95.42
2022-09-28T21:52:56.081Z,95.37
2022-09-28T21:57:56.013Z,95.16
2022-09-28T22:02:56.031Z,95.37
2022-09-28T22:07:55.882Z,95.67
2022-09-28T22:12:55.841Z,95.98
2022-09-28T22:17:55.748Z,96.25
2022-09-28T22:22:55.692Z,96.14
2022-09-28T22:27:55.615Z,96.00
2022-09-28T22:32:55.565Z,95.69
2022-09-28T22:37:55.484Z,95.59
2022-09-28T22:42:55.427Z,95.38
2022-09-28T22:47:55.354Z,95.13
2022-09-28T22:52:55.296Z,95.03
2022-09-28T22:57:55.236Z,94.92
2022-09-28T23:02:55.291Z,95.03
2022-09-28T23:07:55.103Z,95.03
2022-09-28T23:12:55.034Z,94.97
2022-09-28T23:17:54.971Z,94.87
2022-09-28T23:22:54.904Z,95.17
2022-09-28T23:27:54.840Z,95.63
2022-09-28T23:32:54.773Z,95.73
2022-09-28T23:37:54.703Z,95.98
2022-09-28T23:42:54.642Z,96.40
2022-09-28T23:47:54.572Z,96.75
2022-09-28T23:52:54.511Z,97.06
2022-09-28T23:57:54.439Z,97.16
